createdAt,value
2022-12-18T00:00:09.172Z,102898.78
2022-12-18T00:00:44.603Z,102904.94
2022-12-18T00:01:24.940Z,102906.56
2022-12-18T00:01:59.482Z,102903.88
2022-12-18T00:02:31.075Z,102904.41
2022-12-18T00:03:02.680Z,102894.53
2022-12-18T00:03:35.061Z,102896.41
2022-12-18T00:04:09.454Z,102899.88
2022-12-18T00:04:41.135Z,102896.16
2022-12-18T00:05:12.700Z,102898.03
2022-12-18T00:05:51.732Z,102897.22
2022-12-18T00:06:25.636Z,102898.03
2022-12-18T00:06:57.451Z,102891.88
2022-12-18T00:07:29.066Z,102893.72
2022-12-18T00:08:00.686Z,102890.25
2022-12-18T00:08:33.642Z,102887.56
2022-12-18T00:09:05.518Z,102892.91
2022-12-18T00:09:40.145Z,102887.56
2022-12-18T00:10:15.356Z,102887.56
2022-12-18T00:10:47.272Z,102883.28
2022-12-18T00:11:21.194Z,102876.88
2022-12-18T00:11:52.708Z,102876.06
2022-12-18T00:12:24.288Z,102880.38
2022-12-18T00:12:55.857Z,102875.03
2022-12-18T00:13:28.316Z,102877.69
2022-12-18T00:14:00.814Z,102878.50
2022-12-18T00:14:32.329Z,102879.56
2022-12-18T00:15:04.520Z,102875.84
2022-12-18T00:15:37.828Z,102878.50
2022-12-18T00:16:21.326Z,102883.84
2022-12-18T00:16:52.971Z,102879.31
2022-12-18T00:17:24.510Z,102880.38
2022-12-18T00:17:56.051Z,102878.50
2022-12-18T00:18:27.678Z,102880.13
2022-12-18T00:19:00.335Z,102884.66
2022-12-18T00:19:31.895Z,102881.19
2022-12-18T00:20:03.730Z,102882.81
2022-12-18T00:20:39.701Z,102877.69
2022-12-18T00:21:13.472Z,102879.31
2022-12-18T00:21:45.076Z,102885.47
2022-12-18T00:22:16.644Z,102889.19
2022-12-18T00:22:48.247Z,102881.19
2022-12-18T00:23:19.700Z,102881.69
2022-12-18T00:23:52.280Z,102887.50
2022-12-18T00:24:23.814Z,102874.38
2022-12-18T00:24:55.333Z,102884.50
2022-12-18T00:25:26.912Z,102887.41
2022-12-18T00:26:07.697Z,102884.16
2022-12-18T00:26:39.912Z,102892.41
2022-12-18T00:27:11.562Z,102891.59
2022-12-18T00:27:43.073Z,102887.88
2022-12-18T00:28:14.668Z,102891.13
2022-12-18T00:28:46.931Z,102897.28
2022-12-18T00:29:18.419Z,102889.28
2022-12-18T00:29:50.151Z,102891.69
2022-12-18T00:30:21.921Z,102895.19
2022-12-18T00:31:10.856Z,102895.19
2022-12-18T00:31:44.056Z,102894.13
2022-12-18T00:32:15.676Z,102892.28
2022-12-18T00:32:47.265Z,102894.94
2022-12-18T00:33:19.269Z,102892.28
2022-12-18T00:33:53.966Z,102887.97
2022-12-18T00:34:26.804Z,102890.09
2022-12-18T00:34:58.294Z,102886.03
2022-12-18T00:35:29.859Z,102883.00
2022-12-18T00:36:11.116Z,102877.34
2022-12-18T00:36:42.907Z,102874.94
2022-12-18T00:37:20.239Z,102876.53
2022-12-18T00:37:52.029Z,102875.75
2022-12-18T00:38:23.615Z,102881.88
2022-12-18T00:38:56.685Z,102879.19
2022-12-18T00:39:28.122Z,102878.16
2022-12-18T00:39:59.724Z,102876.53
2022-12-18T00:40:31.302Z,102878.66
2022-12-18T00:41:05.857Z,102884.47
2022-12-18T00:41:55.991Z,102878.78
2022-12-18T00:42:46.060Z,102878.78
2022-12-18T00:43:17.617Z,102873.44
2022-12-18T00:43:49.160Z,102877.97
2022-12-18T00:44:21.087Z,102872.63
2022-12-18T00:44:52.642Z,102874.25
2022-12-18T00:45:29.523Z,102871.34
2022-12-18T00:46:01.146Z,102878.31
2022-12-18T00:46:33.148Z,102875.88
2022-12-18T00:47:53.682Z,102881.44
2022-12-18T00:48:25.133Z,102883.31
2022-12-18T00:48:56.648Z,102876.13
2022-12-18T00:49:28.238Z,102881.44
2022-12-18T00:49:59.726Z,102883.88
2022-12-18T00:50:31.209Z,102884.69
2022-12-18T00:51:03.300Z,102880.41
2022-12-18T00:51:34.892Z,102882.84
2022-12-18T00:52:06.411Z,102885.50
2022-12-18T00:52:38.122Z,102881.78
2022-12-18T00:53:09.687Z,102883.41
2022-12-18T00:53:42.162Z,102881.78
2022-12-18T00:54:14.187Z,102883.66
2022-12-18T00:54:45.630Z,102877.50
2022-12-18T00:55:17.384Z,102882.03
2022-12-18T00:55:48.908Z,102880.66
2022-12-18T00:56:24.342Z,102881.69
2022-12-18T00:56:56.223Z,102879.25
2022-12-18T00:57:27.753Z,102876.81
2022-12-18T00:57:59.264Z,102874.97
2022-12-18T00:58:30.772Z,102885.41
2022-12-18T00:59:02.288Z,102885.41
2022-12-18T00:59:33.854Z,102874.72
2022-12-18T01:00:06.884Z,102874.97
2022-12-18T01:00:39.057Z,102881.13
2022-12-18T01:01:10.633Z,102873.09
2022-12-18T01:01:42.382Z,102873.09
2022-12-18T01:02:14.294Z,102873.69
2022-12-18T01:02:46.048Z,102877.16
2022-12-18T01:03:17.716Z,102873.44
2022-12-18T01:03:49.690Z,102875.06
2022-12-18T01:04:21.289Z,102875.88
2022-12-18T01:04:52.803Z,102874.84
2022-12-18T01:05:24.411Z,102871.94
2022-12-18T01:05:55.846Z,102868.44
2022-12-18T01:06:27.564Z,102864.97
2022-12-18T01:06:59.029Z,102869.50
2022-12-18T01:07:30.464Z,102871.34
2022-12-18T01:08:01.915Z,102866.81
2022-12-18T01:08:33.381Z,102871.34
2022-12-18T01:09:05.135Z,102863.56
2022-12-18T01:09:36.644Z,102865.66
2022-12-18T01:10:10.417Z,102864.28
2022-12-18T01:10:42.603Z,102861.63
2022-12-18T01:11:18.022Z,102863.72
2022-12-18T01:11:49.533Z,102862.31
2022-12-18T01:12:21.088Z,102868.72
2022-12-18T01:12:52.753Z,102864.44
2022-12-18T01:13:24.274Z,102861.50
2022-12-18T01:13:56.046Z,102859.66
2022-12-18T01:14:27.613Z,102862.09
2022-12-18T01:14:59.129Z,102867.19
2022-12-18T01:15:30.718Z,102864.53
2022-12-18T01:16:02.617Z,102863.13
2022-12-18T01:16:34.092Z,102868.72
2022-12-18T01:17:05.695Z,102870.84
2022-12-18T01:17:37.291Z,102868.63
2022-12-18T01:18:08.831Z,102868.88
2022-12-18T01:18:40.641Z,102868.88
2022-12-18T01:19:12.595Z,102876.66
2022-12-18T01:19:44.090Z,102868.63
2022-12-18T01:20:15.954Z,102872.13
2022-12-18T01:20:47.528Z,102864.09
2022-12-18T01:21:19.105Z,102870.25
2022-12-18T01:21:50.726Z,102874.56
2022-12-18T01:22:22.218Z,102870.03
2022-12-18T01:22:53.812Z,102870.84
2022-12-18T01:23:25.310Z,102865.22
2022-12-18T01:23:58.116Z,102875.66
2022-12-18T01:24:29.779Z,102875.66
2022-12-18T01:25:02.049Z,102874.63
2022-12-18T01:25:33.600Z,102869.28
2022-12-18T01:26:08.532Z,102880.53
2022-12-18T01:26:40.134Z,102878.69
2022-12-18T01:27:11.829Z,102880.31
2022-12-18T01:27:43.357Z,102876.81
2022-12-18T01:28:14.812Z,102882.75
2022-12-18T01:28:46.280Z,102886.47
2022-12-18T01:29:17.997Z,102890.75
2022-12-18T01:29:50.294Z,102886.22
2022-12-18T01:30:21.892Z,102888.09
2022-12-18T01:30:53.359Z,102892.38
2022-12-18T01:31:27.507Z,102882.16
2022-12-18T01:31:59.215Z,102890.75
2022-12-18T01:32:31.980Z,102887.28
2022-12-18T01:33:05.734Z,102889.69
2022-12-18T01:33:37.876Z,102887.84
2022-12-18T01:34:10.040Z,102897.47
2022-12-18T01:34:41.782Z,102894.00
2022-12-18T01:35:13.216Z,102892.13
2022-12-18T01:35:44.788Z,102885.19
2022-12-18T01:36:36.633Z,102887.59
2022-12-18T01:37:08.259Z,102899.34
2022-12-18T01:37:39.791Z,102894.81
2022-12-18T01:38:11.351Z,102893.19
2022-12-18T01:38:43.382Z,102897.72
2022-12-18T01:39:16.163Z,102892.59
2022-12-18T01:39:47.649Z,102889.13
2022-12-18T01:40:19.114Z,102896.09
2022-12-18T01:40:50.603Z,102894.47
2022-12-18T01:41:27.259Z,102893.66
2022-12-18T01:42:05.640Z,102891.47
2022-12-18T01:42:37.404Z,102891.69
2022-12-18T01:43:59.395Z,102900.53
2022-12-18T01:45:01.624Z,102893.31
2022-12-18T01:45:33.126Z,102893.31
2022-12-18T01:46:04.774Z,102889.84
2022-12-18T01:46:36.298Z,102895.19
2022-12-18T01:47:08.029Z,102897.03
2022-12-18T01:47:46.453Z,102897.03
2022-12-18T01:48:18.020Z,102899.47
2022-12-18T01:48:52.413Z,102893.31
2022-12-18T01:49:23.871Z,102900.28
2022-12-18T01:49:56.785Z,102899.47
2022-12-18T01:50:36.904Z,102895.19
2022-12-18T01:51:11.218Z,102899.47
2022-12-18T01:51:45.098Z,102893.31
2022-12-18T01:52:18.772Z,102897.03
2022-12-18T01:52:56.388Z,102897.28
2022-12-18T01:53:27.962Z,102894.88
2022-12-18T01:54:19.101Z,102894.06
2022-12-18T01:54:53.181Z,102899.63
2022-12-18T01:55:27.429Z,102895.09
2022-12-18T01:56:00.148Z,102890.00
2022-12-18T01:56:31.837Z,102894.28
2022-12-18T01:57:03.452Z,102894.28
2022-12-18T01:57:35.941Z,102895.34
2022-12-18T01:58:07.728Z,102892.66
2022-12-18T01:58:48.215Z,102896.38
2022-12-18T01:59:19.971Z,102896.63
2022-12-18T01:59:54.787Z,102892.91
2022-12-18T02:00:27.553Z,102896.38
2022-12-18T02:00:59.110Z,102887.78
2022-12-18T02:01:32.424Z,102891.28
2022-12-18T02:02:04.401Z,102893.94
2022-12-18T02:02:36.451Z,102892.31
2022-12-18T02:03:08.052Z,102898.47
2022-12-18T02:03:43.796Z,102896.03
2022-12-18T02:04:28.016Z,102899.53
2022-12-18T02:04:59.639Z,102893.38
2022-12-18T02:05:56.536Z,102895.22
2022-12-18T02:06:36.529Z,102898.13
2022-12-18T02:07:45.434Z,102901.63
2022-12-18T02:08:44.540Z,102908.00
2022-12-18T02:09:23.837Z,102904.75
2022-12-18T02:10:04.904Z,102901.50
2022-12-18T02:10:57.172Z,102913.00
2022-12-18T02:12:04.834Z,102906.84
2022-12-18T02:12:46.260Z,102909.75
2022-12-18T02:13:41.858Z,102900.13
2022-12-18T02:14:39.927Z,102901.97
2022-12-18T02:15:25.246Z,102909.16
2022-12-18T02:16:16.968Z,102897.13
2022-12-18T02:17:22.069Z,102899.00
2022-12-18T02:17:59.502Z,102898.19
2022-12-18T02:18:39.322Z,102896.56
2022-12-18T02:19:30.154Z,102894.94
2022-12-18T02:20:33.070Z,102898.41
2022-12-18T02:21:19.580Z,102897.59
2022-12-18T02:22:03.498Z,102903.16
2022-12-18T02:22:54.841Z,102896.44
2022-12-18T02:23:42.432Z,102901.78
2022-12-18T02:24:30.757Z,102907.13
2022-12-18T02:25:13.909Z,102902.00
2022-12-18T02:26:03.161Z,102896.69
2022-12-18T02:26:41.262Z,102902.25
2022-12-18T02:27:14.154Z,102902.25
2022-12-18T02:27:49.686Z,102906.78
2022-12-18T02:28:24.852Z,102903.28
2022-12-18T02:28:59.434Z,102913.97
2022-12-18T02:29:50.535Z,102908.88
2022-12-18T02:30:24.736Z,102908.88
2022-12-18T02:31:00.581Z,102905.38
2022-12-18T02:31:39.954Z,102911.75
2022-12-18T02:32:17.837Z,102905.63
2022-12-18T02:32:53.174Z,102914.66
2022-12-18T02:33:26.678Z,102904.00
2022-12-18T02:34:03.203Z,102905.84
2022-12-18T02:34:38.882Z,102904.50
2022-12-18T02:35:15.078Z,102899.16
2022-12-18T02:35:47.816Z,102903.44
2022-12-18T02:36:21.114Z,102905.28
2022-12-18T02:36:55.233Z,102909.00
2022-12-18T02:37:28.954Z,102903.91
2022-12-18T02:38:01.322Z,102906.56
2022-12-18T02:38:34.904Z,102911.91
2022-12-18T02:39:09.946Z,102906.81
2022-12-18T02:39:44.045Z,102904.13
2022-12-18T02:40:18.122Z,102900.66
2022-12-18T02:40:51.928Z,102903.31
2022-12-18T02:41:24.001Z,102899.84
2022-12-18T02:41:55.736Z,102896.38
2022-12-18T02:42:29.044Z,102898.22
2022-12-18T02:43:15.281Z,102895.56
2022-12-18T02:43:54.797Z,102895.78
2022-12-18T02:44:26.481Z,102893.94
2022-12-18T02:44:58.030Z,102897.63
2022-12-18T02:45:29.588Z,102896.00
2022-12-18T02:46:22.030Z,102895.22
2022-12-18T02:46:55.030Z,102893.34
2022-12-18T02:47:31.914Z,102890.91
2022-12-18T02:48:03.725Z,102885.56
2022-12-18T02:48:37.197Z,102887.44
2022-12-18T02:49:11.330Z,102880.47
2022-12-18T02:50:05.152Z,102882.31
2022-12-18T02:50:45.890Z,102884.19
2022-12-18T02:51:36.180Z,102877.22
2022-12-18T02:52:32.541Z,102880.13
2022-12-18T02:53:23.057Z,102873.16
2022-12-18T02:54:01.915Z,102876.88
2022-12-18T02:54:52.797Z,102878.75
2022-12-18T02:55:49.973Z,102885.16
2022-12-18T02:56:30.095Z,102887.00
2022-12-18T02:57:13.502Z,102879.22
2022-12-18T02:57:55.002Z,102880.03
2022-12-18T02:58:41.614Z,102881.91
2022-12-18T02:59:32.736Z,102881.31
2022-12-18T03:00:13.287Z,102876.22
2022-12-18T03:00:57.678Z,102880.72
2022-12-18T03:01:41.449Z,102875.41
2022-12-18T03:02:27.346Z,102879.09
2022-12-18T03:03:07.966Z,102880.16
2022-12-18T03:03:51.722Z,102882.81
2022-12-18T03:04:44.700Z,102873.19
2022-12-18T03:06:20.862Z,102872.59
2022-12-18T03:06:56.985Z,102869.13
2022-12-18T03:07:41.097Z,102868.31
2022-12-18T03:08:28.837Z,102871.22
2022-12-18T03:09:23.018Z,102866.13
2022-12-18T03:09:56.388Z,102858.91
2022-12-18T03:10:35.201Z,102860.19
2022-12-18T03:11:11.788Z,102862.88
2022-12-18T03:12:08.069Z,102862.88
2022-12-18T03:12:47.708Z,102862.31
2022-12-18T03:13:27.866Z,102862.31
2022-12-18T03:14:00.992Z,102858.03
2022-12-18T03:14:37.827Z,102855.34
2022-12-18T03:15:18.344Z,102857.22
2022-12-18T03:15:54.436Z,102867.31
2022-12-18T03:16:29.795Z,102861.16
2022-12-18T03:17:10.397Z,102856.63
2022-12-18T03:17:47.436Z,102859.53
2022-12-18T03:18:39.985Z,102861.38
2022-12-18T03:19:17.867Z,102859.75
2022-12-18T03:19:50.922Z,102857.91
2022-12-18T03:20:24.718Z,102860.00
2022-12-18T03:21:01.367Z,102862.66
2022-12-18T03:21:43.154Z,102860.00
2022-12-18T03:22:17.197Z,102862.66
2022-12-18T03:22:52.921Z,102848.75
2022-12-18T03:23:30.091Z,102859.41
2022-12-18T03:24:04.381Z,102849.78
2022-12-18T03:24:40.000Z,102857.78
2022-12-18T03:25:15.127Z,102850.00
2022-12-18T03:25:48.643Z,102851.88
2022-12-18T03:26:26.293Z,102851.06
2022-12-18T03:27:04.107Z,102852.91
2022-12-18T03:27:40.054Z,102842.25
2022-12-18T03:28:16.705Z,102851.28
2022-12-18T03:28:55.520Z,102844.31
2022-12-18T03:29:34.887Z,102847.81
2022-12-18T03:30:11.345Z,102843.53
2022-12-18T03:30:47.169Z,102848.84
2022-12-18T03:31:23.062Z,102846.44
2022-12-18T03:32:08.616Z,102846.44
2022-12-18T03:32:46.003Z,102850.16
2022-12-18T03:33:49.540Z,102852.81
2022-12-18T03:34:27.993Z,102846.69
2022-12-18T03:35:04.109Z,102846.91
2022-12-18T03:35:40.197Z,102842.63
2022-12-18T03:36:12.490Z,102846.09
2022-12-18T03:36:44.409Z,102846.31
2022-12-18T03:37:16.238Z,102842.63
2022-12-18T03:37:47.881Z,102835.66
2022-12-18T03:38:19.935Z,102839.94
2022-12-18T03:38:52.080Z,102837.50
2022-12-18T03:39:23.778Z,102837.50
2022-12-18T03:39:55.305Z,102843.66
2022-12-18T03:40:44.279Z,102832.19
2022-12-18T03:41:53.969Z,102827.91
2022-12-18T03:42:51.207Z,102829.75
2022-12-18T03:43:35.226Z,102834.50
2022-12-18T03:44:15.977Z,102831.81
2022-12-18T03:45:01.480Z,102832.88
2022-12-18T03:45:38.410Z,102822.22
2022-12-18T03:46:17.532Z,102825.91
2022-12-18T03:47:10.684Z,102826.97
2022-12-18T03:47:59.729Z,102826.97
2022-12-18T03:48:38.956Z,102828.00
2022-12-18T03:49:26.657Z,102833.34
2022-12-18T03:50:16.701Z,102837.03
2022-12-18T03:50:51.541Z,102828.22
2022-12-18T03:51:25.685Z,102823.72
2022-12-18T03:52:12.513Z,102826.59
2022-12-18T03:52:53.023Z,102821.28
2022-12-18T03:53:45.792Z,102822.09
2022-12-18T03:54:18.447Z,102831.94
2022-12-18T03:54:50.876Z,102826.84
2022-12-18T03:55:24.092Z,102829.50
2022-12-18T03:55:57.964Z,102831.34
2022-12-18T03:56:38.274Z,102832.16
2022-12-18T03:57:20.400Z,102830.53
2022-12-18T03:57:53.559Z,102828.94
2022-12-18T03:58:33.909Z,102834.28
2022-12-18T03:59:06.867Z,102835.31
2022-12-18T03:59:39.428Z,102828.94
2022-12-18T04:00:14.405Z,102828.38
2022-12-18T04:00:48.847Z,102831.63
2022-12-18T04:01:26.866Z,102824.66
2022-12-18T04:02:00.797Z,102823.84
2022-12-18T04:02:35.435Z,102830.00
2022-12-18T04:03:10.039Z,102828.38
2022-12-18T04:03:45.081Z,102827.31
2022-12-18T04:04:19.694Z,102822.22
2022-12-18T04:05:44.992Z,102826.75
2022-12-18T04:06:17.793Z,102826.75
2022-12-18T04:06:51.145Z,102828.81
2022-12-18T04:07:23.908Z,102823.50
2022-12-18T04:07:57.222Z,102822.44
2022-12-18T04:08:30.049Z,102818.97
2022-12-18T04:09:01.822Z,102819.19
2022-12-18T04:09:35.171Z,102825.13
2022-12-18T04:10:10.292Z,102814.69
2022-12-18T04:10:41.750Z,102822.69
2022-12-18T04:11:13.293Z,102812.25
2022-12-18T04:11:45.370Z,102813.88
2022-12-18T04:12:16.986Z,102820.25
2022-12-18T04:12:48.934Z,102814.91
2022-12-18T04:13:30.301Z,102814.09
2022-12-18T04:14:06.976Z,102815.97
2022-12-18T04:14:38.867Z,102816.19
2022-12-18T04:15:11.607Z,102811.66
2022-12-18T04:15:43.199Z,102818.63
2022-12-18T04:16:14.805Z,102805.53
2022-12-18T04:16:46.325Z,102812.47
2022-12-18T04:17:17.902Z,102804.72
2022-12-18T04:17:50.657Z,102810.03
2022-12-18T04:18:22.185Z,102803.09
2022-12-18T04:18:54.644Z,102803.09
2022-12-18T04:19:26.138Z,102799.63
2022-12-18T04:19:57.721Z,102795.31
2022-12-18T04:20:29.310Z,102800.88
2022-12-18T04:21:00.833Z,102802.72
2022-12-18T04:21:32.319Z,102801.91
2022-12-18T04:22:03.842Z,102807.25
2022-12-18T04:22:36.378Z,102795.56
2022-12-18T04:23:07.852Z,102806.22
2022-12-18T04:23:39.724Z,102810.72
2022-12-18T04:24:11.652Z,102802.72
2022-12-18T04:24:43.261Z,102793.94
2022-12-18T04:25:15.458Z,102804.59
2022-12-18T04:25:48.568Z,102804.59
2022-12-18T04:26:20.059Z,102801.91
2022-12-18T04:26:51.510Z,102796.59
2022-12-18T04:28:12.289Z,102794.97
2022-12-18T04:28:43.830Z,102801.91
2022-12-18T04:29:15.460Z,102792.31
2022-12-18T04:29:47.045Z,102794.16
2022-12-18T04:30:18.563Z,102786.16
2022-12-18T04:30:50.554Z,102791.50
2022-12-18T04:31:22.656Z,102789.88
2022-12-18T04:31:54.167Z,102794.16
2022-12-18T04:32:25.844Z,102793.34
2022-12-18T04:32:57.339Z,102788.81
2022-12-18T04:33:28.837Z,102797.06
2022-12-18T04:34:00.269Z,102789.06
2022-12-18T04:34:31.773Z,102790.91
2022-12-18T04:35:05.190Z,102793.34
2022-12-18T04:35:36.777Z,102789.88
2022-12-18T04:36:08.473Z,102794.38
2022-12-18T04:36:39.880Z,102788.25
2022-12-18T04:37:12.248Z,102791.72
2022-12-18T04:37:43.691Z,102795.47
2022-12-18T04:38:15.391Z,102798.91
2022-12-18T04:38:46.893Z,102792.78
2022-12-18T04:39:18.427Z,102801.56
2022-12-18T04:39:49.980Z,102799.16
2022-12-18T04:40:21.485Z,102797.31
2022-12-18T04:40:53.016Z,102799.97
2022-12-18T04:41:24.570Z,102796.50
2022-12-18T04:41:56.132Z,102797.53
2022-12-18T04:42:27.973Z,102797.53
2022-12-18T04:42:59.491Z,102794.88
2022-12-18T04:43:31.073Z,102802.88
2022-12-18T04:44:02.559Z,102802.06
2022-12-18T04:44:34.023Z,102800.44
2022-12-18T04:45:06.177Z,102807.38
2022-12-18T04:45:37.663Z,102802.88
2022-12-18T04:46:09.760Z,102803.69
2022-12-18T04:46:41.517Z,102804.72
2022-12-18T04:47:13.018Z,102810.28
2022-12-18T04:47:44.699Z,102812.94
2022-12-18T04:48:17.020Z,102806.00
2022-12-18T04:48:48.463Z,102806.00
2022-12-18T04:49:20.101Z,102810.50
2022-12-18T04:49:51.583Z,102811.53
2022-12-18T04:50:23.152Z,102812.34
2022-12-18T04:50:54.631Z,102810.72
2022-12-18T04:51:26.951Z,102825.69
2022-12-18T04:51:58.600Z,102823.00
2022-12-18T04:52:30.100Z,102825.69
2022-12-18T04:53:01.860Z,102829.16
2022-12-18T04:53:34.088Z,102824.88
2022-12-18T04:54:05.693Z,102828.34
2022-12-18T04:54:37.187Z,102827.53
2022-12-18T04:55:08.885Z,102829.38
2022-12-18T04:55:40.381Z,102830.41
2022-12-18T04:56:14.421Z,102828.56
2022-12-18T04:56:45.868Z,102833.09
2022-12-18T04:57:19.013Z,102826.13
2022-12-18T04:57:50.522Z,102828.78
2022-12-18T04:58:21.976Z,102831.47
2022-12-18T04:58:53.477Z,102831.47
2022-12-18T04:59:25.010Z,102829.84
2022-12-18T04:59:56.527Z,102828.22
2022-12-18T05:00:28.060Z,102830.88
2022-12-18T05:00:59.958Z,102830.88
2022-12-18T05:01:34.860Z,102831.91
2022-12-18T05:02:07.003Z,102832.72
2022-12-18T05:02:38.639Z,102829.25
2022-12-18T05:03:10.221Z,102834.59
2022-12-18T05:03:42.283Z,102844.19
2022-12-18T05:04:14.037Z,102845.22
2022-12-18T05:04:45.472Z,102837.25
2022-12-18T05:05:17.111Z,102838.06
2022-12-18T05:05:52.265Z,102838.06
2022-12-18T05:06:23.711Z,102835.63
2022-12-18T05:06:55.264Z,102839.09
2022-12-18T05:07:26.699Z,102838.28
2022-12-18T05:07:58.207Z,102843.59
2022-12-18T05:08:29.721Z,102842.78
2022-12-18T05:09:01.233Z,102842.78
2022-12-18T05:09:32.736Z,102850.78
2022-12-18T05:10:08.134Z,102851.81
2022-12-18T05:10:44.725Z,102849.16
2022-12-18T05:11:19.642Z,102854.50
2022-12-18T05:11:51.207Z,102854.50
2022-12-18T05:12:22.828Z,102851.81
2022-12-18T05:13:01.291Z,102856.34
2022-12-18T05:13:33.889Z,102856.34
2022-12-18T05:14:05.348Z,102854.50
2022-12-18T05:14:36.884Z,102854.72
2022-12-18T05:15:08.809Z,102852.88
2022-12-18T05:15:40.305Z,102849.38
2022-12-18T05:16:12.840Z,102851.00
2022-12-18T05:16:44.397Z,102848.56
2022-12-18T05:17:17.321Z,102852.06
2022-12-18T05:17:48.773Z,102847.78
2022-12-18T05:18:20.349Z,102853.91
2022-12-18T05:18:51.939Z,102851.47
2022-12-18T05:19:23.491Z,102854.13
2022-12-18T05:19:55.002Z,102851.47
2022-12-18T05:21:16.354Z,102856.78
2022-12-18T05:21:47.884Z,102859.47
2022-12-18T05:22:19.408Z,102860.53
2022-12-18T05:22:51.883Z,102858.91
2022-12-18T05:23:24.980Z,102857.06
2022-12-18T05:23:56.381Z,102858.09
2022-12-18T05:24:28.036Z,102854.38
2022-12-18T05:24:59.469Z,102858.91
2022-12-18T05:25:30.975Z,102860.75
2022-12-18T05:26:05.575Z,102862.59
2022-12-18T05:26:37.044Z,102862.38
2022-12-18T05:27:08.599Z,102864.47
2022-12-18T05:27:40.140Z,102864.47
2022-12-18T05:28:11.775Z,102864.69
2022-12-18T05:28:43.271Z,102872.44
2022-12-18T05:29:14.844Z,102868.97
2022-12-18T05:29:46.411Z,102873.50
2022-12-18T05:30:18.030Z,102874.53
2022-12-18T05:30:54.285Z,102878.00
2022-12-18T05:31:25.823Z,102878.00
2022-12-18T05:31:57.447Z,102881.69
2022-12-18T05:32:28.910Z,102878.00
2022-12-18T05:33:00.383Z,102885.19
2022-12-18T05:33:34.231Z,102886.22
2022-12-18T05:34:06.411Z,102885.41
2022-12-18T05:34:38.346Z,102881.94
2022-12-18T05:35:11.859Z,102882.75
2022-12-18T05:35:43.402Z,102882.75
2022-12-18T05:36:14.940Z,102883.78
2022-12-18T05:36:47.765Z,102881.94
2022-12-18T05:37:19.321Z,102881.13
2022-12-18T05:37:50.761Z,102882.75
2022-12-18T05:38:23.669Z,102880.31
2022-12-18T05:38:55.215Z,102877.63
2022-12-18T05:39:26.701Z,102881.13
2022-12-18T05:39:58.143Z,102876.81
2022-12-18T05:40:29.622Z,102876.00
2022-12-18T05:41:02.753Z,102876.00
2022-12-18T05:41:34.414Z,102867.22
2022-12-18T05:42:05.962Z,102864.78
2022-12-18T05:42:37.592Z,102875.41
2022-12-18T05:43:09.204Z,102867.44
2022-12-18T05:43:41.533Z,102868.47
2022-12-18T05:44:13.485Z,102861.28
2022-12-18T05:44:45.418Z,102862.34
2022-12-18T05:45:17.020Z,102857.00
2022-12-18T05:45:51.496Z,102854.56
2022-12-18T05:46:23.081Z,102860.72
2022-12-18T05:46:54.818Z,102852.72
2022-12-18T05:47:27.828Z,102858.84
2022-12-18T05:47:59.329Z,102843.91
2022-12-18T05:48:30.869Z,102855.38
2022-12-18T05:49:02.474Z,102854.56
2022-12-18T05:49:33.942Z,102845.78
2022-12-18T05:50:06.125Z,102842.53
2022-12-18T05:50:38.342Z,102851.31
2022-12-18T05:51:13.877Z,102854.78
2022-12-18T05:51:45.689Z,102851.31
2022-12-18T05:52:17.266Z,102850.50
2022-12-18T05:52:48.721Z,102847.03
2022-12-18T05:53:21.446Z,102848.88
2022-12-18T05:53:53.010Z,102843.56
2022-12-18T05:54:24.513Z,102848.06
2022-12-18T05:54:56.033Z,102846.44
2022-12-18T05:55:27.530Z,102848.06
2022-12-18T05:56:03.005Z,102851.53
2022-12-18T05:56:34.474Z,102841.13
2022-12-18T05:57:05.968Z,102841.94
2022-12-18T05:57:37.550Z,102845.66
2022-12-18T05:58:10.833Z,102840.56
2022-12-18T05:58:42.910Z,102834.41
2022-12-18T05:59:14.426Z,102850.19
2022-12-18T05:59:45.970Z,102844.03
2022-12-18T06:00:20.768Z,102851.22
2022-12-18T06:00:52.338Z,102843.44
2022-12-18T06:01:27.387Z,102831.97
2022-12-18T06:01:59.124Z,102847.97
2022-12-18T06:02:30.692Z,102843.44
2022-12-18T06:03:02.570Z,102835.69
2022-12-18T06:03:34.343Z,102833.84
2022-12-18T06:04:05.904Z,102841.00
2022-12-18T06:04:38.288Z,102839.38
2022-12-18T06:05:10.048Z,102836.72
2022-12-18T06:05:46.065Z,102835.91
2022-12-18T06:07:08.350Z,102845.75
2022-12-18T06:07:39.750Z,102841.25
2022-12-18T06:08:12.603Z,102843.31
2022-12-18T06:08:46.773Z,102840.66
2022-12-18T06:09:18.447Z,102838.78
2022-12-18T06:09:49.922Z,102837.16
2022-12-18T06:10:21.404Z,102833.47
2022-12-18T06:10:53.592Z,102835.53
2022-12-18T06:11:27.356Z,102836.34
2022-12-18T06:11:58.922Z,102832.06
2022-12-18T06:12:30.437Z,102840.06
2022-12-18T06:13:02.371Z,102829.41
2022-12-18T06:13:33.923Z,102833.91
2022-12-18T06:14:07.167Z,102834.72
2022-12-18T06:14:38.895Z,102822.47
2022-12-18T06:15:10.444Z,102833.09
2022-12-18T06:15:41.927Z,102831.47
2022-12-18T06:16:13.486Z,102826.16
2022-12-18T06:16:45.176Z,102822.69
2022-12-18T06:17:16.608Z,102827.19
2022-12-18T06:17:48.088Z,102824.53
2022-12-18T06:18:19.599Z,102824.53
2022-12-18T06:18:51.049Z,102823.72
2022-12-18T06:19:22.583Z,102821.06
2022-12-18T06:19:54.116Z,102821.06
2022-12-18T06:20:30.419Z,102818.84
2022-12-18T06:21:04.842Z,102825.78
2022-12-18T06:21:36.244Z,102820.47
2022-12-18T06:22:07.922Z,102823.13
2022-12-18T06:22:39.481Z,102819.66
2022-12-18T06:23:10.901Z,102824.97
2022-12-18T06:23:43.206Z,102812.72
2022-12-18T06:24:14.856Z,102817.22
2022-12-18T06:24:46.321Z,102808.41
2022-12-18T06:25:17.845Z,102825.22
2022-12-18T06:25:49.491Z,102810.28
2022-12-18T06:26:26.153Z,102818.50
2022-12-18T06:26:59.371Z,102816.41
2022-12-18T06:27:30.871Z,102811.34
2022-12-18T06:28:02.488Z,102814.81
2022-12-18T06:28:34.201Z,102824.66
2022-12-18T06:29:06.634Z,102814.22
2022-12-18T06:29:38.215Z,102818.50
2022-12-18T06:30:10.516Z,102817.94
2022-12-18T06:30:45.432Z,102814.44
2022-12-18T06:31:17.111Z,102810.97
2022-12-18T06:31:48.747Z,102814.44
2022-12-18T06:32:20.308Z,102816.31
2022-12-18T06:32:56.645Z,102808.31
2022-12-18T06:33:29.729Z,102810.16
2022-12-18T06:34:04.169Z,102809.34
2022-12-18T06:34:44.479Z,102817.34
2022-12-18T06:35:21.230Z,102804.25
2022-12-18T06:35:57.831Z,102805.06
2022-12-18T06:36:32.665Z,102806.09
2022-12-18T06:37:07.454Z,102808.53
2022-12-18T06:37:39.170Z,102803.44
2022-12-18T06:38:12.078Z,102802.63
2022-12-18T06:38:44.883Z,102808.75
2022-12-18T06:39:16.381Z,102800.19
2022-12-18T06:39:48.206Z,102803.88
2022-12-18T06:40:19.910Z,102799.38
2022-12-18T06:40:51.404Z,102803.88
2022-12-18T06:41:23.107Z,102800.41
2022-12-18T06:41:54.554Z,102805.72